Share

Avawam, KY (41713)

KKYJACKS3 Elev 1198 ft | 37.41 °N, 83.42 °W | Change Station
Active Advisory: Freeze Warning Active Notice: Record Report

Current weather conditions updated 1 minute ago

Clear
Clear
30.4 °F
Feels Like 30 °F
N
0.0
Wind Variable Wind from North
Gusts 0.0 mph
Sunrise 6:55 AM
Sunset 8:09 PM
Moon Waning Gibbous

Today is forecast to be Much Warmer than yesterday.

Pressure 30.37 in
Visibility 10.0 miles
Clouds Clear
Windchill 30 °F
Dew Point 28 °F
Humidity 89%
Rainfall 0.00 in
Snow Depth Not available.
UV 0 out of 16
Pollen 9.80 out of 12
Air Quality Not available.
Flu Activity Sporadic
METAR KI35 171115Z AUTO 09007G19KT 040V120 10SM CLR 06/M06 A3037 RMK AO1

More Conditions Fewer Conditions

Pressure 30.37 in
Visibility 10.0 miles
Clouds Clear
Windchill 30 °F
Dew Point 28 °F
Humidity 89%
Rainfall 0.00 in
Snow Depth Not available.
UV 0 out of 16
Pollen 9.80 out of 12
Air Quality Not available.
Flu Activity Sporadic
METAR KI35 171115Z AUTO 09007G19KT 040V120 10SM CLR 06/M06 A3037 RMK AO1

More Conditions Fewer Conditions

10-Day Forecast

Almanac

Astronomy

Apr. 17, 2014 Rise Set
Actual Time 6:55 AM EDT 8:09 PM EDT
Civil Twilight 6:28 AM EDT 8:37 PM EDT
Nautical Twilight 5:56 AM EDT 9:09 PM EDT
Astronomical Twilight 5:23 AM EDT 9:43 PM EDT
Moon 10:51 PM EDT 8:29 AM EDT
Length of Visible Light 14h 08m
Length of Day
13h 14m
Tomorrow will be 2m 13s longer.
Waning Gibbous, 95% of the Moon is Illuminated
Today
Waning Gibbous
Apr 22
Last Quarter
Apr 29
New
May 6
First Quarter
May 14
Full

Today's Extremes

State Highs State Lows

Community

  • sunset from izmir, narlıdere
    sunset from izmir, narlıdere
  • Sunset over the Bay
    Sunset over the Bay
  • Sunrise Serenade
    Sunrise Serenade
  • symphony in blue....
    symphony in blue....
  • Dawn Surprise
    Dawn Surprise

WunderPhotos

Upload Photos

1,701,919 photos uploaded!

Nearby

Snow Depth

Station Depth Elevation
No new snow has been reported.

Coastal Water Temperatures

Place Temperature
No Stations Reporting

Earthquake Activity

City Distance Mag. Time & Date
Englewood, Tennessee 139 miles 2.8 10:34 PM EDT
2014-04-12
Minimum magnitude displayed is 2.5.

Nearby Weather Stations

Station Location Temp. Windchill Dew Point Humidity Wind Precip. Elev Updated Type
Talbert, KY 30.4 °F 30 °F 28 °F 89% North  at  0.0 mph 0.00 in / hr 1198 ft 7:35 AM EDT Normal
RAWS PEABODY KY, Big Creek, KY 44 °F 41 °F 22 °F 41% ESE  at  5 mph 0.00 in / hr 1464 ft 6:01 AM EDT MADIS

Show More Stations Show Fewer Stations

What do you think?

We're not finished. Please let us know what you like, what you don't like, and what you are still missing.